Time;durP1;ratioP1;P1;durP2;ratioP2;P2;SDS_P1;SDS_P2;PMS_P1;PMS_P2;Temp;Humidity;BMP_temperature;BMP_pressure;BME280_temperature;BME280_humidity;BME280_pressure;Samples;Min_cycle;Max_cycle;Signal;HPM_P1;HPM_P2
2022/11/16 00:01:21;;;;;;;62.70;26.53;;;2.90;99.90;;;;;;4160507;28;20271;-65
2022/11/16 00:03:22;;;;;;;81.53;27.33;;;3.00;99.90;;;;;;4161544;28;20255;-64
2022/11/16 00:05:24;;;;;;;57.23;26.43;;;2.90;99.90;;;;;;4160693;28;20266;-64
2022/11/16 00:07:25;;;;;;;53.63;24.87;;;3.00;99.90;;;;;;4161693;28;20328;-63
2022/11/16 00:09:30;;;;;;;59.63;25.70;;;3.00;99.90;;;;;;4160110;28;20255;-64
2022/11/16 00:11:32;;;;;;;60.60;23.47;;;2.90;99.90;;;;;;4161656;28;20278;-63
2022/11/16 00:13:34;;;;;;;131.03;24.73;;;2.90;99.90;;;;;;4168347;28;20761;-64
2022/11/16 00:15:36;;;;;;;58.97;21.47;;;2.90;99.90;;;;;;4167535;28;20339;-63
2022/11/16 00:17:37;;;;;;;72.17;23.33;;;2.80;99.90;;;;;;4160042;28;20275;-63
2022/11/16 00:19:38;;;;;;;62.77;22.20;;;2.80;99.90;;;;;;4161668;28;20735;-63
2022/11/16 00:21:39;;;;;;;49.20;21.20;;;2.80;99.90;;;;;;4159956;28;20283;-64
2022/11/16 00:23:40;;;;;;;52.17;22.60;;;2.80;99.90;;;;;;4161363;28;20321;-63
2022/11/16 00:25:41;;;;;;;180.37;26.77;;;2.80;99.90;;;;;;4160513;28;21086;-66
2022/11/16 00:27:43;;;;;;;93.53;22.40;;;2.80;99.90;;;;;;4142848;28;20271;-65
2022/11/16 00:29:44;;;;;;;42.13;20.83;;;2.70;99.90;;;;;;4161111;28;20274;-65
2022/11/16 00:31:46;;;;;;;53.13;22.30;;;2.70;99.90;;;;;;4160027;28;20271;-64
2022/11/16 00:33:47;;;;;;;36.77;18.13;;;2.70;99.90;;;;;;4160500;28;20278;-64
2022/11/16 00:35:48;;;;;;;41.80;20.63;;;2.70;99.90;;;;;;4159577;28;20290;-63
2022/11/16 00:37:50;;;;;;;39.57;19.27;;;2.70;99.90;;;;;;4160608;28;20821;-66
2022/11/16 00:39:52;;;;;;;40.43;19.87;;;2.70;99.90;;;;;;4160111;28;20320;-62
2022/11/16 00:41:53;;;;;;;34.03;18.03;;;2.80;99.90;;;;;;4161722;28;20263;-63
2022/11/16 00:43:54;;;;;;;38.77;18.87;;;2.80;99.90;;;;;;4170178;28;20791;-63
2022/11/16 00:45:55;;;;;;;53.83;22.03;;;2.70;99.90;;;;;;4163055;28;20755;-64
2022/11/16 00:47:56;;;;;;;45.27;20.07;;;2.70;99.90;;;;;;4159436;28;20303;-64
2022/11/16 00:49:57;;;;;;;39.37;20.17;;;2.80;99.90;;;;;;4161596;28;20739;-64
2022/11/16 00:51:58;;;;;;;50.47;20.63;;;2.80;99.90;;;;;;4159448;28;20313;-63
2022/11/16 00:54:00;;;;;;;39.67;19.10;;;2.80;99.90;;;;;;4164713;28;20769;-63
2022/11/16 00:56:01;;;;;;;37.17;19.47;;;2.80;99.90;;;;;;4176735;28;20250;-64
2022/11/16 00:58:02;;;;;;;43.03;20.33;;;2.80;99.90;;;;;;4177354;28;20676;-64
2022/11/16 01:00:04;;;;;;;36.67;19.53;;;2.80;99.90;;;;;;4179594;28;20320;-63
2022/11/16 01:02:05;;;;;;;37.43;19.20;;;2.80;99.90;;;;;;4180073;28;20734;-63
2022/11/16 01:04:06;;;;;;;48.60;22.67;;;2.90;99.90;;;;;;4179813;28;20379;-64
2022/11/16 01:06:10;;;;;;;40.23;19.77;;;2.90;99.90;;;;;;4179748;28;20255;-63
2022/11/16 01:08:11;;;;;;;38.73;19.17;;;2.90;99.90;;;;;;4176043;28;20327;-67
2022/11/16 01:10:15;;;;;;;59.63;20.57;;;2.90;99.90;;;;;;4162817;28;20283;-65
2022/11/16 01:12:16;;;;;;;54.77;19.27;;;2.90;99.90;;;;;;4164663;28;20734;-63
2022/11/16 01:14:17;;;;;;;51.47;20.83;;;2.90;99.90;;;;;;4162945;28;20690;-62
2022/11/16 01:16:20;;;;;;;73.00;21.90;;;2.90;99.90;;;;;;4165048;28;20271;-63
2022/11/16 01:18:21;;;;;;;41.90;19.60;;;2.90;99.90;;;;;;4164918;28;20259;-62
2022/11/16 01:20:27;;;;;;;40.73;19.40;;;2.90;99.90;;;;;;4165071;28;20330;-63
2022/11/16 01:22:28;;;;;;;43.47;19.73;;;2.80;99.90;;;;;;4162135;28;20266;-63
2022/11/16 01:24:30;;;;;;;37.93;19.30;;;2.80;99.90;;;;;;4164057;28;20723;-62
2022/11/16 01:26:31;;;;;;;38.07;19.17;;;2.90;99.90;;;;;;4162222;28;20266;-63
2022/11/16 01:28:32;;;;;;;37.33;20.47;;;2.90;99.90;;;;;;4163212;28;20299;-63
2022/11/16 01:30:34;;;;;;;43.23;20.33;;;2.80;99.90;;;;;;4162347;28;20279;-64
2022/11/16 01:32:35;;;;;;;42.03;20.23;;;2.80;99.90;;;;;;4163386;28;20279;-63
2022/11/16 01:34:36;;;;;;;38.73;18.43;;;2.80;99.90;;;;;;4163266;28;20325;-63
2022/11/16 01:36:37;;;;;;;36.97;19.93;;;2.80;99.90;;;;;;4169196;28;20336;-66
2022/11/16 01:38:42;;;;;;;38.93;19.37;;;2.80;99.90;;;;;;4179466;28;20266;-63
2022/11/16 01:40:43;;;;;;;42.07;19.77;;;2.70;99.90;;;;;;4178223;28;20328;-63
2022/11/16 01:42:44;;;;;;;39.60;19.20;;;2.70;99.90;;;;;;4180592;28;20292;-65
2022/11/16 01:44:46;;;;;;;39.93;19.93;;;2.70;99.90;;;;;;4176494;28;20347;-63
2022/11/16 01:46:47;;;;;;;38.77;19.93;;;2.70;99.90;;;;;;4180122;28;20344;-63
2022/11/16 01:48:52;;;;;;;37.60;19.90;;;2.60;99.90;;;;;;4178866;28;20371;-64
2022/11/16 01:50:56;;;;;;;38.00;19.67;;;2.60;99.90;;;;;;4179300;28;20319;-63
2022/11/16 01:53:02;;;;;;;35.50;18.93;;;2.60;99.90;;;;;;4177660;28;20668;-63
2022/11/16 01:55:04;;;;;;;37.27;20.37;;;2.60;99.90;;;;;;4179183;28;20746;-62
2022/11/16 01:57:08;;;;;;;41.97;20.77;;;2.60;99.90;;;;;;4178580;28;20284;-64
2022/11/16 01:59:10;;;;;;;42.43;20.30;;;2.60;99.90;;;;;;4180063;28;20270;-63
2022/11/16 02:01:11;;;;;;;38.27;19.13;;;2.60;99.90;;;;;;4178728;28;20324;-66
2022/11/16 02:03:15;;;;;;;39.80;20.77;;;2.60;99.90;;;;;;4179849;28;20258;-64
2022/11/16 02:05:20;;;;;;;40.23;20.57;;;2.60;99.90;;;;;;4166701;28;20332;-64
2022/11/16 02:07:30;;;;;;;44.63;21.13;;;2.60;99.90;;;;;;4162961;28;20274;-66
2022/11/16 02:09:54;;;;;;;45.17;20.35;;;2.60;99.90;;;;;;4161195;28;20869;-63
2022/11/16 02:12:15;;;;;;;41.63;20.83;;;2.60;99.90;;;;;;4163639;28;20449;-63
2022/11/16 02:14:16;;;;;;;;;;;2.60;99.90;;;;;;4162606;28;20774;-63
2022/11/16 02:16:33;;;;;;;;;;;2.60;99.90;;;;;;4163834;28;19913;-66
2022/11/16 02:19:03;;;;;;;39.10;19.60;;;2.60;99.90;;;;;;4162067;28;19912;-66
2022/11/16 02:21:25;;;;;;;42.47;19.57;;;2.70;99.90;;;;;;4165228;28;20341;-64
2022/11/16 02:23:26;;;;;;;45.83;20.63;;;2.80;99.90;;;;;;4163016;28;20270;-64
2022/11/16 02:25:56;;;;;;;42.17;21.47;;;2.80;99.90;;;;;;4162796;28;20270;-63
2022/11/16 02:28:25;;;;;;;37.73;20.33;;;2.70;99.90;;;;;;4161810;28;20332;-64
2022/11/16 02:30:26;;;;;;;43.93;19.87;;;2.70;99.90;;;;;;4163029;28;20596;-63
2022/11/16 02:32:59;;;;;;;40.63;18.43;;;2.70;99.90;;;;;;4161892;28;20263;-63
2022/11/16 02:35:17;;;;;;;46.80;20.20;;;2.70;99.90;;;;;;4161876;28;20278;-63
2022/11/16 02:37:21;;;;;;;45.60;20.10;;;2.60;99.90;;;;;;4167044;28;20278;-64
2022/11/16 02:39:26;;;;;;;45.40;21.03;;;2.60;99.90;;;;;;4177774;28;20254;-65
2022/11/16 02:41:31;;;;;;;56.73;21.27;;;2.60;99.90;;;;;;4178414;28;20253;-63
2022/11/16 02:43:41;;;;;;;51.40;22.83;;;2.60;99.90;;;;;;4178283;28;20750;-65
2022/11/16 02:45:47;;;;;;;44.77;19.80;;;2.50;99.90;;;;;;4173951;28;20344;-66
2022/11/16 02:47:53;;;;;;;49.00;22.27;;;2.50;99.90;;;;;;4178432;28;20270;-63
2022/11/16 02:49:59;;;;;;;48.77;21.83;;;2.50;99.90;;;;;;4176778;28;20786;-63
2022/11/16 02:52:01;;;;;;;50.10;22.10;;;2.50;99.90;;;;;;4178230;28;20274;-63
2022/11/16 02:54:13;;;;;;;103.43;25.03;;;2.60;99.90;;;;;;4177934;28;20669;-65
2022/11/16 02:56:14;;;;;;;94.63;23.63;;;2.50;99.90;;;;;;4178859;28;20266;-63
2022/11/16 02:58:25;;;;;;;48.87;21.93;;;2.50;99.90;;;;;;4177937;28;20745;-64
2022/11/16 03:01:01;;;;;;;66.13;23.10;;;2.50;99.90;;;;;;4177677;28;20335;-62
2022/11/16 03:03:19;;;;;;;82.37;22.57;;;2.60;99.90;;;;;;4122640;28;20091;-65
2022/11/16 03:05:33;;;;;;;66.60;22.63;;;2.60;99.90;;;;;;4177391;28;20278;-62
2022/11/16 03:07:43;;;;;;;82.90;24.20;;;2.60;99.90;;;;;;4174940;28;20356;-63
2022/11/16 03:09:47;;;;;;;72.03;23.67;;;2.60;99.90;;;;;;4161465;28;20345;-63
2022/11/16 03:11:59;;;;;;;48.50;22.57;;;2.60;99.90;;;;;;4161233;28;20045;-64
2022/11/16 03:14:08;;;;;;;49.27;22.03;;;2.60;99.90;;;;;;4161640;28;20325;-66
2022/11/16 03:16:17;;;;;;;52.97;23.27;;;2.60;99.90;;;;;;4161101;28;20267;-65
2022/11/16 03:18:21;;;;;;;51.57;21.53;;;2.60;99.90;;;;;;4161173;28;20271;-64
2022/11/16 03:20:28;;;;;;;41.73;19.90;;;2.60;99.90;;;;;;4159901;28;20270;-67
2022/11/16 03:22:37;;;;;;;42.53;20.87;;;2.60;99.90;;;;;;4161731;28;20592;-63
2022/11/16 03:24:40;;;;;;;41.97;19.93;;;2.70;99.90;;;;;;4173149;28;20274;-63
2022/11/16 03:27:05;;;;;;;72.07;20.87;;;2.60;99.90;;;;;;4168724;28;20275;-64
2022/11/16 03:29:17;;;;;;;42.03;20.90;;;2.60;99.90;;;;;;4160275;28;20302;-65
2022/11/16 03:31:28;;;;;;;48.70;22.27;;;2.60;99.90;;;;;;4160623;28;20275;-63
2022/11/16 03:33:41;;;;;;;44.63;20.10;;;2.60;99.90;;;;;;4161345;28;20274;-64
2022/11/16 03:35:54;;;;;;;42.93;21.20;;;2.60;99.90;;;;;;4144723;28;20049;-63
2022/11/16 03:37:58;;;;;;;44.73;22.47;;;2.60;99.90;;;;;;4161331;28;20263;-63
2022/11/16 03:40:03;;;;;;;69.13;23.43;;;2.70;99.90;;;;;;4161385;28;20258;-63
2022/11/16 03:42:12;;;;;;;53.97;21.87;;;2.70;99.90;;;;;;4176093;28;20340;-63
2022/11/16 03:44:15;;;;;;;102.27;25.37;;;2.60;99.90;;;;;;4177941;28;20681;-63
2022/11/16 03:46:17;;;;;;;80.43;24.03;;;2.60;99.90;;;;;;4173924;28;20754;-62
2022/11/16 03:48:18;;;;;;;180.67;28.17;;;2.60;99.90;;;;;;4177241;28;20285;-65
2022/11/16 03:50:20;;;;;;;81.53;25.37;;;2.50;99.90;;;;;;4175944;28;20645;-63
2022/11/16 03:52:21;;;;;;;86.57;24.33;;;2.50;99.90;;;;;;4178073;28;20301;-63
2022/11/16 03:54:22;;;;;;;93.90;25.23;;;2.50;99.90;;;;;;4176339;28;20666;-62
2022/11/16 03:56:23;;;;;;;62.10;25.23;;;2.50;99.90;;;;;;4177109;28;20266;-63
2022/11/16 03:58:24;;;;;;;56.23;23.77;;;2.50;99.90;;;;;;4175929;28;20286;-62
2022/11/16 04:00:25;;;;;;;51.23;23.97;;;2.60;99.90;;;;;;4177679;28;20270;-63
2022/11/16 04:02:27;;;;;;;48.77;22.90;;;2.60;99.90;;;;;;4176221;28;20324;-61
2022/11/16 04:25:35;;;;;;;44.77;21.93;;;2.60;99.90;;;;;;4177484;28;20331;-67
2022/11/16 04:30:16;;;;;;;46.57;22.37;;;2.60;99.90;;;;;;4123988;28;20303;-63
2022/11/16 04:39:16;;;;;;;56.03;25.37;;;2.70;99.90;;;;;;4165014;28;20358;-64
2022/11/16 04:43:37;;;;;;;58.67;26.10;;;2.70;99.90;;;;;;4167435;28;20317;-64
2022/11/16 04:47:58;;;;;;;54.50;25.47;;;2.80;99.90;;;;;;4178526;28;20336;-65
2022/11/16 04:49:59;;;;;;;58.40;26.40;;;2.80;99.90;;;;;;4179290;28;20282;-63
2022/11/16 04:52:01;;;;;;;55.37;26.20;;;2.90;99.90;;;;;;4180772;28;20323;-66
2022/11/16 04:54:02;;;;;;;60.53;26.10;;;2.80;99.90;;;;;;4179800;28;20258;-64
2022/11/16 04:56:03;;;;;;;67.90;30.00;;;2.90;99.90;;;;;;4179765;28;20270;-64
2022/11/16 04:58:04;;;;;;;82.53;32.03;;;2.90;99.90;;;;;;4166066;28;20316;-66
2022/11/16 05:00:06;;;;;;;80.97;31.63;;;2.90;99.90;;;;;;4164384;28;20747;-67
2022/11/16 05:02:07;;;;;;;81.90;34.80;;;2.90;99.90;;;;;;4179940;28;20269;-65
2022/11/16 05:04:09;;;;;;;85.13;32.93;;;2.90;99.90;;;;;;4179682;28;20615;-63
2022/11/16 05:06:10;;;;;;;88.20;34.20;;;2.90;99.90;;;;;;4155268;28;20287;-65
2022/11/16 05:08:11;;;;;;;83.17;33.90;;;3.00;99.90;;;;;;4162923;28;20267;-66
2022/11/16 05:10:13;;;;;;;83.77;33.20;;;3.00;99.90;;;;;;4162735;28;20368;-66
2022/11/16 05:12:20;;;;;;;92.93;36.10;;;3.00;99.90;;;;;;4162929;28;20266;-67
2022/11/16 05:14:22;;;;;;;82.77;32.70;;;3.00;99.90;;;;;;4163919;28;20267;-65
2022/11/16 05:16:23;;;;;;;85.20;33.60;;;3.00;99.90;;;;;;4162458;28;20930;-64
2022/11/16 05:18:24;;;;;;;88.93;36.40;;;2.90;99.90;;;;;;4163604;28;20278;-64
2022/11/16 05:22:54;;;;;;;107.87;38.57;;;2.90;99.90;;;;;;4162722;28;20328;-64
2022/11/16 05:24:55;;;;;;;;;;;2.90;99.90;;;;;;4162800;28;20545;-64
2022/11/16 05:26:56;;;;;;;;;;;2.90;99.90;;;;;;4173986;28;19919;-64
2022/11/16 05:28:57;;;;;;;;;;;2.90;99.90;;;;;;4179698;28;19920;-64
2022/11/16 05:30:58;;;;;;;99.95;39.20;;;2.90;99.90;;;;;;4165783;28;19909;-64
2022/11/16 05:32:59;;;;;;;92.07;36.37;;;2.90;99.90;;;;;;4167348;28;20042;-64
2022/11/16 05:35:01;;;;;;;81.77;30.90;;;2.90;99.90;;;;;;4170301;28;20270;-66
2022/11/16 05:37:02;;;;;;;85.00;28.27;;;2.90;99.90;;;;;;4176167;28;20953;-66
2022/11/16 05:39:04;;;;;;;88.37;30.47;;;2.90;99.90;;;;;;4176559;28;20274;-64
2022/11/16 05:41:05;;;;;;;78.90;28.53;;;2.90;99.90;;;;;;4175349;28;20327;-70
2022/11/16 05:43:06;;;;;;;77.13;27.83;;;2.80;99.90;;;;;;4165322;28;20275;-65
2022/11/16 05:45:08;;;;;;;70.97;27.37;;;2.80;99.90;;;;;;4163276;28;20328;-64
2022/11/16 05:47:09;;;;;;;82.27;30.40;;;2.80;99.90;;;;;;4172204;28;20319;-64
2022/11/16 05:49:12;;;;;;;95.77;31.13;;;2.80;99.90;;;;;;4196062;28;20374;-63
2022/11/16 05:51:13;;;;;;;80.77;28.13;;;2.80;99.90;;;;;;4178889;28;20348;-63
2022/11/16 05:53:14;;;;;;;119.73;28.47;;;2.80;99.90;;;;;;4169433;28;20767;-65
2022/11/16 05:55:15;;;;;;;137.53;27.83;;;2.80;99.90;;;;;;4161893;28;20287;-64
2022/11/16 05:57:16;;;;;;;109.57;27.80;;;2.70;99.90;;;;;;4172706;28;20290;-65
2022/11/16 05:59:20;;;;;;;93.03;30.13;;;2.70;99.90;;;;;;4165807;28;20286;-62
2022/11/16 06:01:21;;;;;;;100.87;26.97;;;2.70;99.90;;;;;;4168864;28;20638;-64
2022/11/16 06:03:22;;;;;;;72.20;28.17;;;2.70;99.90;;;;;;4160393;28;20316;-64
2022/11/16 06:05:24;;;;;;;107.40;28.80;;;2.60;99.90;;;;;;4162018;28;20279;-67
2022/11/16 06:07:25;;;;;;;71.67;27.03;;;2.70;99.90;;;;;;4144681;28;20605;-67
2022/11/16 06:09:26;;;;;;;64.27;26.60;;;2.70;99.90;;;;;;4162566;28;20287;-66
2022/11/16 06:11:27;;;;;;;86.73;31.53;;;2.70;99.90;;;;;;4162725;28;20725;-67
2022/11/16 06:13:29;;;;;;;64.27;24.57;;;2.70;99.90;;;;;;4162676;28;20352;-64
2022/11/16 06:15:30;;;;;;;83.80;27.93;;;2.70;99.90;;;;;;4161904;28;20348;-65
2022/11/16 06:17:32;;;;;;;74.70;29.13;;;2.60;99.90;;;;;;4160801;28;20275;-64
2022/11/16 06:19:34;;;;;;;93.70;27.50;;;2.70;99.90;;;;;;4162812;28;20262;-64
2022/11/16 06:21:35;;;;;;;95.90;30.83;;;2.70;99.90;;;;;;4161533;28;20263;-64
2022/11/16 06:23:36;;;;;;;64.60;27.50;;;2.70;99.90;;;;;;4163007;28;20642;-64
2022/11/16 06:25:38;;;;;;;78.47;29.00;;;2.70;99.90;;;;;;4161022;28;20723;-64
2022/11/16 06:27:39;;;;;;;96.10;30.17;;;2.70;99.90;;;;;;4161511;28;20336;-66
2022/11/16 06:29:41;;;;;;;101.23;32.80;;;2.70;99.90;;;;;;4160820;28;20302;-65
2022/11/16 06:31:42;;;;;;;101.40;31.10;;;2.70;99.90;;;;;;4162631;28;20267;-65
2022/11/16 06:33:43;;;;;;;77.47;28.63;;;2.70;99.90;;;;;;4161354;28;20747;-66
2022/11/16 06:35:45;;;;;;;62.13;27.57;;;2.70;99.90;;;;;;4162265;28;20317;-66
2022/11/16 06:37:46;;;;;;;74.67;30.83;;;2.80;99.90;;;;;;4161512;28;20306;-65
2022/11/16 06:39:56;;;;;;;70.15;28.77;;;2.80;99.90;;;;;;4145160;28;20365;-65
2022/11/16 06:41:57;;;;;;;56.17;22.30;;;2.80;99.90;;;;;;4161158;28;20103;-65
2022/11/16 06:43:59;;;;;;;60.37;25.43;;;2.80;99.90;;;;;;4162007;28;20682;-64
2022/11/16 06:46:00;;;;;;;58.27;25.47;;;2.80;99.90;;;;;;4143791;28;20386;-62
2022/11/16 06:48:01;;;;;;;51.07;23.10;;;2.90;99.90;;;;;;4161610;28;20316;-61
2022/11/16 06:50:02;;;;;;;59.40;26.23;;;2.90;99.90;;;;;;4161032;28;20353;-63
2022/11/16 06:52:04;;;;;;;57.47;26.00;;;2.90;99.90;;;;;;4142693;28;20756;-61
2022/11/16 06:54:05;;;;;;;52.10;23.37;;;2.90;99.90;;;;;;4160453;28;20416;-62
2022/11/16 06:56:06;;;;;;;77.30;34.03;;;2.90;99.90;;;;;;4159935;28;20301;-61
2022/11/16 06:58:08;;;;;;;63.90;28.60;;;3.10;99.90;;;;;;4161127;28;20659;-62
2022/11/16 07:00:10;;;;;;;65.27;29.50;;;3.20;99.90;;;;;;4161234;28;20286;-62
2022/11/16 07:02:11;;;;;;;83.10;32.57;;;3.30;99.90;;;;;;4162273;28;20279;-64
2022/11/16 07:04:14;;;;;;;87.67;34.30;;;3.30;99.90;;;;;;4161107;28;20337;-63
2022/11/16 07:06:16;;;;;;;91.13;36.23;;;3.30;99.90;;;;;;4161907;28;20313;-62
2022/11/16 07:08:17;;;;;;;79.33;32.40;;;3.40;99.90;;;;;;4160145;28;20735;-62
2022/11/16 07:10:18;;;;;;;75.63;30.70;;;3.40;99.90;;;;;;4161828;28;20375;-66
2022/11/16 07:12:19;;;;;;;75.50;31.63;;;3.60;99.90;;;;;;4160448;28;20297;-63
2022/11/16 07:14:20;;;;;;;70.47;30.50;;;3.50;99.90;;;;;;4161861;28;20669;-66
2022/11/16 07:16:21;;;;;;;70.73;28.50;;;3.50;99.90;;;;;;4143114;28;20334;-72
2022/11/16 07:18:23;;;;;;;66.03;28.37;;;3.60;99.90;;;;;;4161092;28;20263;-72
2022/11/16 07:20:24;;;;;;;61.57;27.23;;;3.60;99.90;;;;;;4161478;28;20267;-65
2022/11/16 07:22:25;;;;;;;70.97;29.27;;;3.60;99.90;;;;;;4160912;28;20268;-63
2022/11/16 07:24:26;;;;;;;70.63;27.97;;;3.50;99.90;;;;;;4161856;28;20320;-65
2022/11/16 07:26:29;;;;;;;73.50;32.13;;;3.50;99.90;;;;;;4159302;28;20415;-65
2022/11/16 07:28:31;;;;;;;68.67;28.80;;;3.50;99.90;;;;;;4161695;28;20755;-69
2022/11/16 07:30:32;;;;;;;68.10;30.73;;;3.50;99.90;;;;;;4160079;28;20766;-65
2022/11/16 07:32:33;;;;;;;64.27;28.67;;;3.50;99.90;;;;;;4161653;28;20259;-64
2022/11/16 07:34:34;;;;;;;66.53;28.40;;;3.50;99.90;;;;;;4160599;28;20267;-63
2022/11/16 07:36:36;;;;;;;58.20;25.87;;;3.40;99.90;;;;;;4161685;28;20263;-65
2022/11/16 07:38:37;;;;;;;58.17;26.70;;;3.40;99.90;;;;;;4142912;28;20276;-64
2022/11/16 07:40:38;;;;;;;59.40;26.57;;;3.40;99.90;;;;;;4161691;28;20321;-65
2022/11/16 07:42:40;;;;;;;55.77;25.50;;;3.50;99.90;;;;;;4158020;28;20324;-64
2022/11/16 07:44:42;;;;;;;57.73;25.47;;;3.50;99.90;;;;;;4161386;28;20321;-71
2022/11/16 07:46:43;;;;;;;56.10;26.43;;;3.50;99.90;;;;;;4160693;28;20282;-64
2022/11/16 07:48:44;;;;;;;56.40;24.73;;;3.60;99.90;;;;;;4160914;28;20286;-63
2022/11/16 07:50:45;;;;;;;47.77;23.83;;;3.60;99.90;;;;;;4160444;28;20799;-63
2022/11/16 07:52:46;;;;;;;42.80;22.13;;;3.60;99.90;;;;;;4160326;28;20324;-63
2022/11/16 07:54:47;;;;;;;47.27;22.47;;;3.60;99.90;;;;;;4161047;28;20262;-62
2022/11/16 07:56:49;;;;;;;50.37;24.80;;;3.50;99.90;;;;;;4159187;28;20751;-63
2022/11/16 07:58:50;;;;;;;55.10;24.17;;;3.50;99.90;;;;;;4160559;28;20258;-68
2022/11/16 08:00:51;;;;;;;55.17;25.87;;;3.50;99.90;;;;;;4159660;28;20677;-62
2022/11/16 08:02:52;;;;;;;56.07;26.03;;;3.50;99.90;;;;;;4161258;28;20320;-63
2022/11/16 08:04:53;;;;;;;61.20;26.80;;;3.50;99.90;;;;;;4159937;28;20336;-62
2022/11/16 08:06:55;;;;;;;58.77;26.73;;;3.60;99.90;;;;;;4161001;28;20333;-66
2022/11/16 08:08:56;;;;;;;62.73;27.00;;;3.60;99.90;;;;;;4160179;28;20647;-65
2022/11/16 08:11:02;;;;;;;53.10;25.50;;;3.60;99.90;;;;;;4160546;28;20291;-64
2022/11/16 08:13:04;;;;;;;48.50;22.93;;;3.60;99.90;;;;;;4142119;28;20307;-63
2022/11/16 08:15:05;;;;;;;45.60;22.73;;;3.70;99.90;;;;;;4143173;28;20046;-62
2022/11/16 08:17:07;;;;;;;48.40;24.87;;;3.70;99.90;;;;;;4160246;28;20021;-62
2022/11/16 08:19:09;;;;;;;39.00;21.03;;;3.70;99.90;;;;;;4142495;28;20271;-62
2022/11/16 08:21:12;;;;;;;46.50;22.17;;;3.80;99.90;;;;;;4160098;28;20817;-63
2022/11/16 08:23:14;;;;;;;43.53;21.63;;;3.80;99.90;;;;;;4160236;28;20557;-63
2022/11/16 08:25:15;;;;;;;41.10;19.87;;;3.80;99.90;;;;;;4160472;28;20259;-63
2022/11/16 08:27:17;;;;;;;38.40;20.30;;;3.80;99.90;;;;;;4159391;28;20689;-62
2022/11/16 08:29:19;;;;;;;41.13;20.93;;;3.80;99.90;;;;;;4160103;28;20747;-62
2022/11/16 08:31:23;;;;;;;32.67;18.33;;;3.80;99.90;;;;;;4159606;28;20079;-68
2022/11/16 08:33:27;;;;;;;31.50;17.53;;;3.80;99.90;;;;;;4161147;28;20397;-69
2022/11/16 08:35:28;;;;;;;34.83;18.03;;;4.00;99.90;;;;;;4160021;28;20258;-68
2022/11/16 08:37:30;;;;;;;37.50;20.07;;;4.00;99.90;;;;;;4161064;28;20368;-66
2022/11/16 08:39:31;;;;;;;37.20;20.03;;;4.10;99.90;;;;;;4159781;28;20274;-66
2022/11/16 08:41:34;;;;;;;40.47;19.80;;;4.00;99.90;;;;;;4142119;28;20325;-63
2022/11/16 08:43:38;;;;;;;33.23;18.07;;;4.00;99.90;;;;;;4160332;28;20084;-64
2022/11/16 08:45:39;;;;;;;36.07;19.13;;;4.00;99.90;;;;;;4161082;28;20258;-65
2022/11/16 08:47:40;;;;;;;32.83;18.27;;;4.10;99.90;;;;;;4159815;28;20266;-65
2022/11/16 08:49:41;;;;;;;28.60;16.33;;;4.10;99.90;;;;;;4142588;28;20306;-63
2022/11/16 08:51:42;;;;;;;33.27;16.93;;;4.10;99.90;;;;;;4159315;28;20041;-65
2022/11/16 08:53:44;;;;;;;29.47;16.70;;;4.10;99.90;;;;;;4159705;28;20279;-64
2022/11/16 08:55:45;;;;;;;27.43;15.60;;;4.20;99.90;;;;;;4159912;28;20274;-64
2022/11/16 08:57:46;;;;;;;25.70;15.47;;;4.20;99.90;;;;;;4160182;28;20025;-62
2022/11/16 08:59:47;;;;;;;24.47;15.10;;;4.20;99.90;;;;;;4160678;28;20363;-63
2022/11/16 09:01:51;;;;;;;29.23;15.97;;;4.30;99.90;;;;;;4159744;28;20385;-62
2022/11/16 09:03:53;;;;;;;27.70;15.77;;;4.30;99.90;;;;;;4160820;28;20038;-68
2022/11/16 09:05:54;;;;;;;30.77;15.40;;;4.30;99.90;;;;;;4159445;28;20021;-63
2022/11/16 09:07:55;;;;;;;33.03;17.00;;;4.40;99.90;;;;;;4142431;28;20485;-65
2022/11/16 09:09:56;;;;;;;26.73;15.80;;;4.50;99.90;;;;;;4159173;28;20401;-64
2022/11/16 09:11:57;;;;;;;27.20;15.97;;;4.50;99.90;;;;;;4160017;28;20037;-65
2022/11/16 09:13:58;;;;;;;27.23;16.67;;;4.50;99.90;;;;;;4159660;28;20321;-62
2022/11/16 09:16:00;;;;;;;25.03;15.20;;;4.50;99.90;;;;;;4160524;28;20127;-62
2022/11/16 09:18:01;;;;;;;25.17;14.83;;;4.60;99.90;;;;;;4159500;28;20087;-64
2022/11/16 09:20:03;;;;;;;33.67;19.13;;;4.60;99.90;;;;;;4163334;28;20275;-65
2022/11/16 09:22:04;;;;;;;26.57;16.20;;;4.60;99.90;;;;;;4161860;28;20096;-62
2022/11/16 09:24:05;;;;;;;28.70;16.47;;;4.70;99.90;;;;;;4162233;28;20274;-63
2022/11/16 09:26:06;;;;;;;39.27;20.00;;;4.70;99.90;;;;;;4162319;28;20095;-64
2022/11/16 09:28:07;;;;;;;34.80;20.00;;;4.70;99.90;;;;;;4163092;28;20470;-62
2022/11/16 09:30:10;;;;;;;34.90;19.87;;;4.70;99.90;;;;;;4163298;28;20042;-64
2022/11/16 09:32:11;;;;;;;35.13;21.50;;;4.80;99.90;;;;;;4161234;28;20061;-62
2022/11/16 09:34:12;;;;;;;36.70;21.50;;;4.80;99.90;;;;;;4162978;28;20049;-64
2022/11/16 09:36:14;;;;;;;34.67;20.83;;;4.90;99.90;;;;;;4162162;28;20080;-64
2022/11/16 09:38:15;;;;;;;36.47;20.93;;;4.80;99.90;;;;;;4163460;28;20026;-63
2022/11/16 09:40:17;;;;;;;39.70;22.03;;;4.80;99.90;;;;;;4161477;28;20041;-65
2022/11/16 09:42:33;;;;;;;40.73;23.20;;;4.90;99.90;;;;;;4162964;28;20029;-66
2022/11/16 09:45:00;;;;;;;42.37;22.60;;;4.80;99.90;;;;;;4162383;28;20022;-64
2022/11/16 09:47:01;;;;;;;38.57;21.83;;;4.90;99.90;;;;;;4163031;28;20079;-65
2022/11/16 09:49:11;;;;;;;39.53;22.10;;;4.90;99.90;;;;;;4161989;28;20433;-68
2022/11/16 09:51:15;;;;;;;39.17;22.35;;;4.90;99.90;;;;;;4162922;28;20041;-64
2022/11/16 09:53:25;;;;;;;40.17;21.47;;;5.00;99.90;;;;;;4161758;28;20107;-66
2022/11/16 09:55:52;;;;;;;38.97;22.20;;;5.00;99.90;;;;;;4162440;28;20033;-66
2022/11/16 09:57:58;;;;;;;38.33;20.67;;;5.00;99.90;;;;;;4161703;28;20025;-64
2022/11/16 10:00:18;;;;;;;44.63;23.27;;;5.10;99.90;;;;;;4162907;28;20037;-65
2022/11/16 10:02:46;;;;;;;41.40;23.42;;;5.10;99.90;;;;;;4161460;28;20369;-65
2022/11/16 10:05:14;;;;;;;35.90;21.73;;;5.10;99.90;;;;;;4162576;28;20449;-64
2022/11/16 10:07:22;;;;;;;34.47;20.27;;;5.10;99.90;;;;;;4149141;28;20445;-64
2022/11/16 10:09:24;;;;;;;33.40;18.93;;;5.10;99.90;;;;;;4575457;22;20142;-67
2022/11/16 10:11:34;;;;;;;35.10;20.03;;;5.10;99.90;;;;;;4161680;28;20076;-67
2022/11/16 10:13:56;;;;;;;30.00;18.90;;;5.20;99.90;;;;;;4161592;28;20037;-65
2022/11/16 10:16:11;;;;;;;28.13;17.63;;;5.20;99.90;;;;;;4162059;28;20068;-65
2022/11/16 10:18:35;;;;;;;30.77;18.87;;;5.20;99.90;;;;;;4162442;28;20420;-63
2022/11/16 10:20:45;;;;;;;33.83;18.43;;;5.30;99.90;;;;;;4161325;28;20041;-64
2022/11/16 10:22:56;;;;;;;31.17;17.70;;;5.40;99.90;;;;;;4162670;28;20412;-64
2022/11/16 10:25:24;;;;;;;28.15;16.77;;;5.40;99.90;;;;;;4160667;28;20063;-63
2022/11/16 10:27:33;;;;;;;25.50;14.87;;;5.50;99.90;;;;;;4159445;28;20099;-69
2022/11/16 10:29:46;;;;;;;31.33;16.63;;;5.50;99.90;;;;;;4161135;28;20017;-63
2022/11/16 10:32:07;;;;;;;31.13;17.70;;;5.60;99.90;;;;;;4162559;28;20038;-65
2022/11/16 10:34:18;;;;;;;30.20;17.38;;;5.60;99.90;;;;;;4161290;28;20079;-65
2022/11/16 10:36:25;;;;;;;25.77;15.57;;;5.70;99.90;;;;;;4162544;28;20168;-65
2022/11/16 10:38:31;;;;;;;29.57;16.20;;;5.80;99.90;;;;;;4161347;28;20079;-65
2022/11/16 10:40:45;;;;;;;24.50;14.70;;;5.80;99.90;;;;;;4162419;28;20033;-67
2022/11/16 10:43:01;;;;;;;26.60;16.07;;;5.80;99.90;;;;;;4161150;28;20033;-64
2022/11/16 10:45:17;;;;;;;24.53;14.83;;;5.80;99.90;;;;;;4143747;28;20043;-68
2022/11/16 10:47:30;;;;;;;27.70;16.60;;;5.80;99.90;;;;;;4161099;28;20025;-60
2022/11/16 10:49:31;;;;;;;27.87;16.03;;;5.80;99.90;;;;;;4162381;28;20025;-63
2022/11/16 10:51:32;;;;;;;30.43;17.40;;;5.90;99.90;;;;;;4160932;28;20045;-63
2022/11/16 10:53:35;;;;;;;26.53;15.60;;;6.00;99.90;;;;;;4162347;28;20091;-65
2022/11/16 10:55:37;;;;;;;27.87;16.67;;;6.00;99.90;;;;;;4159798;28;20049;-64
2022/11/16 10:57:54;;;;;;;29.80;17.27;;;6.00;99.90;;;;;;4161924;28;20025;-65
2022/11/16 10:59:56;;;;;;;28.37;18.50;;;6.00;99.90;;;;;;4160768;28;20029;-63
2022/11/16 11:01:57;;;;;;;32.77;18.83;;;6.00;99.90;;;;;;4161819;28;20412;-63
2022/11/16 11:04:16;;;;;;;32.53;19.33;;;6.00;99.90;;;;;;4160651;28;20033;-64
2022/11/16 11:06:17;;;;;;;31.27;18.03;;;6.00;99.90;;;;;;4161974;28;20435;-65
2022/11/16 11:08:29;;;;;;;32.27;19.67;;;6.10;99.90;;;;;;4160968;28;20077;-66
2022/11/16 11:10:33;;;;;;;31.70;18.67;;;6.10;99.90;;;;;;4161382;28;20142;-67
2022/11/16 11:12:36;;;;;;;30.83;18.13;;;6.10;99.90;;;;;;4160919;28;20059;-62
2022/11/16 11:14:38;;;;;;;30.40;19.03;;;6.10;99.90;;;;;;4162036;28;20091;-63
2022/11/16 11:16:40;;;;;;;35.63;19.40;;;6.10;99.90;;;;;;4159882;28;20092;-65
2022/11/16 11:18:41;;;;;;;31.97;18.87;;;6.10;99.90;;;;;;4161182;28;20071;-65